Adairville, Kentucky
Current Conditions -  °F | °C
As of 5:15 AM on Monday 22 Dec 2014 (Local Time) from KM91 Reporting Station
Overcast Overcast  
Wind Chill: 44°   Ceiling: 2200
Heat Index: 46°   Visibility: 10mi
Dew Point: 46°   Wind: 6mph
Humidity: 100%   Direction: 160°SSE
Pressure: 29.94"   Gusts: NA
Location:  36.67°N, 86.85°W
Report Text: KM91 221115Z AUTO 16005KT 10SM OVC022 08/08 A2994 RMK
Loading
Personal Weather Stations






























Interactive Weather Map New forecast layout! Learn more

10-Day Weather Forecast

Advertisements
Track Severe Weather on mobile